Portada
METAR-TAF:

METAR-TAF

Aeroports :

Saint-Pierre, Reunió

latitud: 21-20S, longitud: 055-29E, altitud: 52 m

Observació

L'informe es va fer fa 31 minuts, a les 17:00 UTC
Vent calma
Temperatura 20°C
Humitat 68%
Pressió 1020 hPa
Visibilitat 10 km o més
Cel ennuvolat a una alçada de 5400 ft

METAR: FMEP 071700Z AUTO 00000KT 9999 BKN054 20/14 Q1020

Hora: 21:31 (17:31 UTC)

Pronòstic

L'informe es va fer fa 6 hores i 31 minuts, a les 11:00 UTC
Pronòstic vàlid del 07 a les 12 UTC al 07 a les 21 UTC
Vent 8 kt del Sud-Est
Visibilitat 10 km o més
Núvols disperses a una alçada de 4500 ft

TAF: FMEP 071100Z 0712/0721 14008KT 9999 SCT045

Observacions i pronòstics meteorològics de més de 4000 aeroports (METAR i TAF).

Les estacions disponibles són els punts grocs i vermells al mapa.

Posi el ratolí al punt desitjat per veure el nom de l'estació.

Feu clic per veure les observacions i els pronòstics meteorològics.

Per canviar el mapa: feu clic els botons verds amb una creu de color negre per apropar; al botó verd amb un guió per allunyar la imatge; o en les fletxes verdes per a mapes adjacents.


METAR-TAF: